createdAt,value
2022-10-17T00:01:10.537Z,78.49
2022-10-17T00:03:39.950Z,78.37
2022-10-17T00:06:11.526Z,78.24
2022-10-17T00:08:41.272Z,78.26
2022-10-17T00:11:16.051Z,78.20
2022-10-17T00:13:44.888Z,78.02
2022-10-17T00:16:13.566Z,77.94
2022-10-17T00:18:41.497Z,77.91
2022-10-17T00:21:17.059Z,77.98
2022-10-17T00:23:46.080Z,78.02
2022-10-17T00:26:14.657Z,78.21
2022-10-17T00:28:43.011Z,78.14
2022-10-17T00:31:11.825Z,78.09
2022-10-17T00:33:39.795Z,78.01
2022-10-17T00:36:23.228Z,78.08
2022-10-17T00:38:58.045Z,78.20
2022-10-17T00:41:29.680Z,78.07
2022-10-17T00:44:02.600Z,78.09
2022-10-17T00:46:34.065Z,78.05
2022-10-17T00:49:07.757Z,78.17
2022-10-17T00:51:45.248Z,78.26
2022-10-17T00:54:15.164Z,78.24
2022-10-17T00:56:45.192Z,78.15
2022-10-17T00:59:16.239Z,78.20
2022-10-17T01:01:54.125Z,78.10
2022-10-17T01:04:22.406Z,78.03
2022-10-17T01:06:50.474Z,78.19
2022-10-17T01:09:18.681Z,78.04
2022-10-17T01:12:12.012Z,78.01
2022-10-17T01:14:43.165Z,77.90
2022-10-17T01:17:44.884Z,77.98
2022-10-17T01:20:32.138Z,77.92
2022-10-17T01:23:15.107Z,77.97
2022-10-17T01:26:37.097Z,77.98
2022-10-17T01:29:43.127Z,77.97
2022-10-17T01:32:16.394Z,78.03
2022-10-17T01:34:57.838Z,77.90
2022-10-17T01:37:37.247Z,77.81
2022-10-17T01:40:18.862Z,77.73
2022-10-17T01:43:06.493Z,77.94
2022-10-17T01:45:40.836Z,78.43
2022-10-17T01:48:17.082Z,78.52
2022-10-17T01:51:08.048Z,78.59
2022-10-17T01:53:45.824Z,78.59
2022-10-17T01:56:15.912Z,78.95
2022-10-17T01:58:51.051Z,79.01
2022-10-17T02:01:21.293Z,78.71
2022-10-17T02:03:50.983Z,78.56
2022-10-17T02:06:18.949Z,78.41
2022-10-17T02:08:49.476Z,78.29
2022-10-17T02:11:23.404Z,78.22
2022-10-17T02:14:22.381Z,78.70
2022-10-17T02:17:02.634Z,79.06
2022-10-17T02:20:09.343Z,78.97
2022-10-17T02:22:48.030Z,78.88
2022-10-17T02:25:25.135Z,78.66
2022-10-17T02:28:06.064Z,78.66
2022-10-17T02:30:52.393Z,78.75
2022-10-17T02:33:44.971Z,78.85
2022-10-17T02:36:19.154Z,78.89
2022-10-17T02:38:49.582Z,78.56
2022-10-17T02:41:19.756Z,78.61
2022-10-17T02:43:50.232Z,78.63
2022-10-17T02:46:21.265Z,78.80
2022-10-17T02:49:02.976Z,78.93
2022-10-17T02:51:57.353Z,78.96
2022-10-17T02:54:34.644Z,79.03
2022-10-17T02:57:12.865Z,79.02
2022-10-17T02:59:45.187Z,79.14
2022-10-17T03:02:13.706Z,79.23
2022-10-17T03:04:46.754Z,79.17
2022-10-17T03:07:14.806Z,79.17
2022-10-17T03:09:42.837Z,79.11
2022-10-17T03:12:11.116Z,79.02
2022-10-17T03:14:39.290Z,79.01
2022-10-17T03:17:08.077Z,78.91
2022-10-17T03:19:37.071Z,79.07
2022-10-17T03:22:05.006Z,79.01
2022-10-17T03:24:33.315Z,79.22
2022-10-17T03:27:01.593Z,79.46
2022-10-17T03:29:29.871Z,79.44
2022-10-17T03:31:58.352Z,79.43
2022-10-17T03:34:26.525Z,79.34
2022-10-17T03:36:55.314Z,79.30
2022-10-17T03:39:23.389Z,79.41
2022-10-17T03:41:51.356Z,79.31
2022-10-17T03:44:19.679Z,79.55
2022-10-17T03:46:47.780Z,79.63
2022-10-17T03:49:16.188Z,79.49
2022-10-17T03:51:44.065Z,79.39
2022-10-17T03:54:14.379Z,79.50
2022-10-17T03:56:43.558Z,79.56
2022-10-17T03:59:15.855Z,79.45
2022-10-17T04:01:46.521Z,79.32
2022-10-17T04:04:14.860Z,79.31
2022-10-17T04:06:42.679Z,79.49
2022-10-17T04:09:11.719Z,79.66
2022-10-17T04:12:00.074Z,79.88
2022-10-17T04:14:28.200Z,79.85
2022-10-17T04:16:56.109Z,79.72
2022-10-17T04:19:25.922Z,79.62
2022-10-17T04:21:53.893Z,79.51
2022-10-17T04:24:22.378Z,79.73
2022-10-17T04:27:16.184Z,80.02
2022-10-17T04:29:45.859Z,79.95
2022-10-17T04:32:17.922Z,79.87
2022-10-17T04:34:52.528Z,79.70
2022-10-17T04:37:22.361Z,79.62
2022-10-17T04:39:51.456Z,79.59
2022-10-17T04:42:19.480Z,79.58
2022-10-17T04:44:47.907Z,79.42
2022-10-17T04:47:17.415Z,79.53
2022-10-17T04:49:45.800Z,79.60
2022-10-17T04:52:14.417Z,79.87
2022-10-17T04:54:47.007Z,79.92
2022-10-17T04:57:15.192Z,79.82
2022-10-17T04:59:48.115Z,79.80
2022-10-17T05:02:21.808Z,79.82
2022-10-17T05:04:49.793Z,79.76
2022-10-17T05:07:18.197Z,79.67
2022-10-17T05:09:52.520Z,79.69
2022-10-17T05:12:20.661Z,79.78
2022-10-17T05:14:49.244Z,79.89
2022-10-17T05:17:17.521Z,79.88
2022-10-17T05:19:45.733Z,79.93
2022-10-17T05:22:13.664Z,80.02
2022-10-17T05:24:42.261Z,80.01
2022-10-17T05:27:10.526Z,80.06
2022-10-17T05:29:39.445Z,80.05
2022-10-17T05:32:16.640Z,80.14
2022-10-17T05:34:44.788Z,80.22
2022-10-17T05:37:12.729Z,80.51
2022-10-17T05:39:41.338Z,80.82
2022-10-17T05:42:10.765Z,81.02
2022-10-17T05:44:40.148Z,81.30
2022-10-17T05:47:09.768Z,81.87
2022-10-17T05:49:46.357Z,82.18
2022-10-17T05:52:18.190Z,81.64
2022-10-17T05:55:02.443Z,81.08
2022-10-17T05:57:30.400Z,80.81
2022-10-17T05:59:58.778Z,80.17
2022-10-17T06:02:27.271Z,78.76
2022-10-17T06:04:55.539Z,77.66
2022-10-17T06:07:24.733Z,77.13
2022-10-17T06:09:53.626Z,76.91
2022-10-17T06:12:21.697Z,76.77
2022-10-17T06:14:50.035Z,76.89
2022-10-17T06:17:18.353Z,76.99
2022-10-17T06:19:46.529Z,77.38
2022-10-17T06:22:16.649Z,77.79
2022-10-17T06:24:45.031Z,77.74
2022-10-17T06:27:13.641Z,77.58
2022-10-17T06:29:42.400Z,77.36
2022-10-17T06:32:14.964Z,76.99
2022-10-17T06:34:45.655Z,76.37
2022-10-17T06:37:13.728Z,74.74
2022-10-17T06:39:42.878Z,73.20
2022-10-17T06:42:17.101Z,71.34
2022-10-17T06:45:06.143Z,67.97
2022-10-17T06:47:52.613Z,65.96
2022-10-17T06:50:42.546Z,65.25
2022-10-17T06:53:17.601Z,64.77
2022-10-17T06:56:11.664Z,64.20
2022-10-17T06:59:10.568Z,63.55
2022-10-17T07:01:43.210Z,62.91
2022-10-17T07:04:15.051Z,62.68
2022-10-17T07:06:43.170Z,61.68
2022-10-17T07:09:18.483Z,60.54
2022-10-17T07:11:46.789Z,57.51
2022-10-17T07:14:18.314Z,53.96
2022-10-17T07:16:47.303Z,50.41
2022-10-17T07:19:25.138Z,46.28
2022-10-17T07:21:54.338Z,42.94
2022-10-17T07:24:22.760Z,40.86
2022-10-17T07:26:56.114Z,37.38
2022-10-17T07:29:24.192Z,34.87
2022-10-17T07:32:12.532Z,32.05
2022-10-17T07:34:41.321Z,30.34
2022-10-17T07:37:11.972Z,27.68
2022-10-17T07:39:42.586Z,26.50
2022-10-17T07:42:11.046Z,24.51
2022-10-17T07:44:38.940Z,23.28
2022-10-17T07:47:07.313Z,25.39
2022-10-17T07:49:42.658Z,22.86
2022-10-17T07:52:12.009Z,22.03
2022-10-17T07:54:40.770Z,21.06
2022-10-17T07:57:09.634Z,20.93
2022-10-17T07:59:38.556Z,20.08
2022-10-17T08:02:08.243Z,18.03
2022-10-17T08:04:36.544Z,17.84
2022-10-17T08:07:20.673Z,17.50
2022-10-17T08:09:54.314Z,16.03
2022-10-17T08:12:22.296Z,16.59
2022-10-17T08:14:50.487Z,16.54
2022-10-17T08:17:18.583Z,15.32
2022-10-17T08:19:46.654Z,15.00
2022-10-17T08:22:14.630Z,14.54
2022-10-17T08:24:43.111Z,14.82
2022-10-17T08:27:13.536Z,13.48
2022-10-17T08:29:41.955Z,13.14
2022-10-17T08:32:10.333Z,14.87
2022-10-17T08:34:38.575Z,14.80
2022-10-17T08:37:06.608Z,14.52
2022-10-17T08:39:34.828Z,13.18
2022-10-17T08:42:05.784Z,13.96
2022-10-17T08:44:42.401Z,13.02
2022-10-17T08:47:15.415Z,13.70
2022-10-17T08:49:55.803Z,13.02
2022-10-17T08:52:40.333Z,12.65
2022-10-17T08:55:27.884Z,11.73
2022-10-17T08:57:56.062Z,12.94
2022-10-17T09:00:26.362Z,12.43
2022-10-17T09:03:12.195Z,11.64
2022-10-17T09:05:48.266Z,11.11
2022-10-17T09:08:39.644Z,11.96
2022-10-17T09:11:31.767Z,11.83
2022-10-17T09:14:30.268Z,12.52
2022-10-17T09:17:02.031Z,12.39
2022-10-17T09:19:36.853Z,12.65
2022-10-17T09:22:12.310Z,12.55
2022-10-17T09:25:00.758Z,11.92
2022-10-17T09:27:41.817Z,12.03
2022-10-17T09:30:21.463Z,13.01
2022-10-17T09:33:23.023Z,12.92
2022-10-17T09:35:59.279Z,13.19
2022-10-17T09:38:36.872Z,14.67
2022-10-17T09:41:39.082Z,16.14
2022-10-17T09:44:33.536Z,17.08
2022-10-17T09:47:17.989Z,18.32
2022-10-17T09:49:48.029Z,19.82
2022-10-17T09:52:36.555Z,21.20
2022-10-17T09:55:17.334Z,22.19
2022-10-17T09:58:00.687Z,23.21
2022-10-17T10:00:32.208Z,24.15
2022-10-17T10:03:18.853Z,25.10
2022-10-17T10:05:59.688Z,25.91
2022-10-17T10:08:31.068Z,26.48
2022-10-17T10:11:03.477Z,27.63
2022-10-17T10:13:34.281Z,28.40
2022-10-17T10:16:20.034Z,28.93
2022-10-17T10:18:50.859Z,29.72
2022-10-17T10:21:22.523Z,31.00
2022-10-17T10:24:05.465Z,31.28
2022-10-17T10:26:39.574Z,32.45
2022-10-17T10:29:34.874Z,32.62
2022-10-17T10:32:20.453Z,32.82
2022-10-17T10:34:56.717Z,32.76
2022-10-17T10:37:43.590Z,33.25
2022-10-17T10:40:26.245Z,33.47
2022-10-17T10:43:01.381Z,33.91
2022-10-17T10:45:53.380Z,34.48
2022-10-17T10:48:25.892Z,35.10
2022-10-17T10:51:06.040Z,35.35
2022-10-17T10:53:41.608Z,35.39
2022-10-17T10:56:32.843Z,35.84
2022-10-17T10:59:20.964Z,35.86
2022-10-17T11:02:05.304Z,35.76
2022-10-17T11:05:00.513Z,35.55
2022-10-17T11:07:35.344Z,35.90
2022-10-17T11:10:22.388Z,36.60
2022-10-17T11:12:57.825Z,36.65
2022-10-17T11:15:40.418Z,36.69
2022-10-17T11:18:30.319Z,36.32
2022-10-17T11:21:15.387Z,35.78
2022-10-17T11:23:48.820Z,35.38
2022-10-17T11:26:26.895Z,35.25
2022-10-17T11:29:01.838Z,35.00
2022-10-17T11:31:39.508Z,34.63
2022-10-17T11:34:28.570Z,33.34
2022-10-17T11:37:04.732Z,30.97
2022-10-17T11:39:56.564Z,28.82
2022-10-17T11:42:37.952Z,26.90
2022-10-17T11:45:12.162Z,25.04
2022-10-17T11:47:48.321Z,23.33
2022-10-17T11:53:17.444Z,21.06
2022-10-17T11:55:46.843Z,20.39
2022-10-17T11:58:22.259Z,18.48
2022-10-17T12:01:24.892Z,18.72
2022-10-17T12:04:17.450Z,17.60
2022-10-17T12:07:04.067Z,17.27
2022-10-17T12:09:39.057Z,17.23
2022-10-17T12:12:07.539Z,16.55
2022-10-17T12:14:47.841Z,16.23
2022-10-17T12:17:30.523Z,15.90
2022-10-17T12:20:32.887Z,15.28
2022-10-17T12:23:13.314Z,14.81
2022-10-17T12:25:58.252Z,14.97
2022-10-17T12:28:39.378Z,14.89
2022-10-17T12:31:23.548Z,14.62
2022-10-17T12:33:55.248Z,14.52
2022-10-17T12:36:23.919Z,14.12
2022-10-17T12:39:04.130Z,14.03
2022-10-17T12:41:38.221Z,14.24
2022-10-17T12:44:15.409Z,14.61
2022-10-17T12:46:52.380Z,14.35
2022-10-17T12:49:39.005Z,14.37
2022-10-17T12:52:29.894Z,13.90
2022-10-17T12:55:13.124Z,14.58
2022-10-17T12:57:48.992Z,15.40
2022-10-17T13:00:28.798Z,15.86
2022-10-17T13:03:05.296Z,15.18
2022-10-17T13:05:37.564Z,16.72
2022-10-17T13:08:13.833Z,18.66
2022-10-17T13:10:49.117Z,19.81
2022-10-17T13:13:24.308Z,20.52
2022-10-17T13:15:55.042Z,21.62
2022-10-17T13:18:28.501Z,21.99
2022-10-17T13:21:02.449Z,23.45
2022-10-17T13:23:36.902Z,23.43
2022-10-17T13:26:18.279Z,23.22
2022-10-17T13:29:14.285Z,24.63
2022-10-17T13:31:44.511Z,25.56
2022-10-17T13:34:21.612Z,26.37
2022-10-17T13:36:54.388Z,26.13
2022-10-17T13:39:32.909Z,27.95
2022-10-17T13:42:15.543Z,28.07
2022-10-17T13:44:43.985Z,27.71
2022-10-17T13:47:30.114Z,29.47
2022-10-17T13:49:59.138Z,30.62
2022-10-17T13:52:30.051Z,30.72
2022-10-17T13:55:17.453Z,31.30
2022-10-17T13:57:45.919Z,32.11
2022-10-17T14:00:23.105Z,32.53
2022-10-17T14:02:51.025Z,32.83
2022-10-17T14:05:21.293Z,32.33
2022-10-17T14:08:11.441Z,33.49
2022-10-17T14:10:43.361Z,33.86
2022-10-17T14:13:24.228Z,34.67
2022-10-17T14:15:54.940Z,35.50
2022-10-17T14:18:36.434Z,35.34
2022-10-17T14:24:32.303Z,38.85
2022-10-17T14:27:00.853Z,39.45
2022-10-17T14:29:31.087Z,40.52
2022-10-17T14:32:02.822Z,41.64
2022-10-17T14:34:41.139Z,42.31
2022-10-17T14:37:24.683Z,42.87
2022-10-17T14:39:55.190Z,42.97
2022-10-17T14:42:26.759Z,43.25
2022-10-17T14:45:07.666Z,43.64
2022-10-17T14:47:43.725Z,44.61
2022-10-17T14:50:11.966Z,45.37
2022-10-17T14:52:40.958Z,45.70
2022-10-17T14:55:26.028Z,46.23
2022-10-17T14:57:54.672Z,47.20
2022-10-17T15:00:23.822Z,47.80
2022-10-17T15:02:55.382Z,48.18
2022-10-17T15:05:23.508Z,48.87
2022-10-17T15:07:52.030Z,48.93
2022-10-17T15:10:33.303Z,49.25
2022-10-17T15:13:26.565Z,50.38
2022-10-17T15:15:53.922Z,51.31
2022-10-17T15:18:22.209Z,51.63
2022-10-17T15:20:56.274Z,52.66
2022-10-17T15:23:34.341Z,53.33
2022-10-17T15:26:02.115Z,54.17
2022-10-17T15:28:30.235Z,54.30
2022-10-17T15:30:58.246Z,54.69
2022-10-17T15:33:26.205Z,55.29
2022-10-17T15:35:54.195Z,55.75
2022-10-17T15:38:22.138Z,55.75
2022-10-17T15:40:52.962Z,55.43
2022-10-17T15:43:20.953Z,55.85
2022-10-17T15:45:48.843Z,56.58
2022-10-17T15:48:24.696Z,57.13
2022-10-17T15:50:52.765Z,57.40
2022-10-17T15:53:20.940Z,57.56
2022-10-17T15:55:51.078Z,57.64
2022-10-17T15:58:19.615Z,58.40
2022-10-17T16:00:48.478Z,58.86
2022-10-17T16:03:16.548Z,58.88
2022-10-17T16:05:44.446Z,59.48
2022-10-17T16:08:12.341Z,60.22
2022-10-17T16:10:40.928Z,60.53
2022-10-17T16:13:24.205Z,60.85
2022-10-17T16:15:52.695Z,60.89
2022-10-17T16:18:21.525Z,61.06
2022-10-17T16:20:49.621Z,61.19
2022-10-17T16:23:17.669Z,61.22
2022-10-17T16:25:45.947Z,61.63
2022-10-17T16:28:13.814Z,62.33
2022-10-17T16:30:45.131Z,62.55
2022-10-17T16:33:13.199Z,62.51
2022-10-17T16:35:41.203Z,62.49
2022-10-17T16:38:09.275Z,62.71
2022-10-17T16:40:39.314Z,63.32
2022-10-17T16:43:10.761Z,63.52
2022-10-17T16:45:39.220Z,63.72
2022-10-17T16:48:07.076Z,64.37
2022-10-17T16:50:42.754Z,64.52
2022-10-17T16:53:10.813Z,64.67
2022-10-17T16:55:39.897Z,64.98
2022-10-17T16:58:08.085Z,65.18
2022-10-17T17:00:39.601Z,65.15
2022-10-17T17:03:07.569Z,65.50
2022-10-17T17:05:36.090Z,65.78
2022-10-17T17:08:04.949Z,65.70
2022-10-17T17:10:34.793Z,66.16
2022-10-17T17:13:04.401Z,66.13
2022-10-17T17:15:32.613Z,66.02
2022-10-17T17:18:05.380Z,66.00
2022-10-17T17:20:34.354Z,65.92
2022-10-17T17:23:02.640Z,66.91
2022-10-17T17:25:30.906Z,66.76
2022-10-17T17:27:58.877Z,67.07
2022-10-17T17:30:27.050Z,67.26
2022-10-17T17:32:55.024Z,67.53
2022-10-17T17:35:22.989Z,67.89
2022-10-17T17:37:50.866Z,67.76
2022-10-17T17:40:18.865Z,68.40
2022-10-17T17:42:46.876Z,68.48
2022-10-17T17:45:15.071Z,67.82
2022-10-17T17:47:43.143Z,67.32
2022-10-17T17:50:13.572Z,67.56
2022-10-17T17:52:45.538Z,67.83
2022-10-17T17:55:13.504Z,67.88
2022-10-17T17:57:44.443Z,68.01
2022-10-17T18:00:13.334Z,68.22
2022-10-17T18:02:44.614Z,67.89
2022-10-17T18:05:12.869Z,68.89
2022-10-17T18:07:41.102Z,69.06
2022-10-17T18:10:09.443Z,69.13
2022-10-17T18:12:37.518Z,69.49
2022-10-17T18:15:06.592Z,69.47
2022-10-17T18:17:35.373Z,69.84
2022-10-17T18:20:04.881Z,70.09
2022-10-17T18:22:33.595Z,70.50
2022-10-17T18:25:02.150Z,70.99
2022-10-17T18:27:29.982Z,71.12
2022-10-17T18:29:58.087Z,70.57
2022-10-17T18:32:26.464Z,70.51
2022-10-17T18:34:54.648Z,70.44
2022-10-17T18:37:22.608Z,70.65
2022-10-17T18:39:52.766Z,70.95
2022-10-17T18:42:21.032Z,70.61
2022-10-17T18:44:50.047Z,70.58
2022-10-17T18:47:17.916Z,70.41
2022-10-17T18:49:45.879Z,70.46
2022-10-17T18:52:13.913Z,70.38
2022-10-17T18:54:41.782Z,70.61
2022-10-17T18:57:09.845Z,70.61
2022-10-17T18:59:39.349Z,70.52
2022-10-17T19:02:07.600Z,70.67
2022-10-17T19:04:35.494Z,70.68
2022-10-17T19:07:03.567Z,71.13
2022-10-17T19:09:31.575Z,71.13
2022-10-17T19:12:00.325Z,71.33
2022-10-17T19:14:28.816Z,71.12
2022-10-17T19:16:57.596Z,70.77
2022-10-17T19:19:26.822Z,70.94
2022-10-17T19:21:54.968Z,71.02
2022-10-17T19:24:25.837Z,71.10
2022-10-17T19:26:57.255Z,71.50
2022-10-17T19:29:27.204Z,71.84
2022-10-17T19:34:24.051Z,71.71
2022-10-17T19:36:52.321Z,71.63
2022-10-17T19:39:23.469Z,71.63
2022-10-17T19:41:51.431Z,71.77
2022-10-17T19:44:19.413Z,72.13
2022-10-17T19:46:49.405Z,72.02
2022-10-17T19:49:17.982Z,71.86
2022-10-17T19:51:46.064Z,71.82
2022-10-17T19:54:16.801Z,71.62
2022-10-17T19:56:44.769Z,72.13
2022-10-17T19:59:14.780Z,72.45
2022-10-17T20:01:43.506Z,72.32
2022-10-17T20:04:12.633Z,72.47
2022-10-17T20:06:41.767Z,72.85
2022-10-17T20:09:16.674Z,72.58
2022-10-17T20:11:45.346Z,72.93
2022-10-17T20:14:13.520Z,73.26
2022-10-17T20:16:42.248Z,73.24
2022-10-17T20:19:12.054Z,73.72
2022-10-17T20:21:40.031Z,73.64
2022-10-17T20:24:14.040Z,73.13
2022-10-17T20:26:42.800Z,73.97
2022-10-17T20:29:17.352Z,73.75
2022-10-17T20:31:46.880Z,73.92
2022-10-17T20:34:17.687Z,74.40
2022-10-17T20:36:46.792Z,73.95
2022-10-17T20:39:17.061Z,73.72
2022-10-17T20:41:46.313Z,73.60
2022-10-17T20:44:14.695Z,73.93
2022-10-17T20:46:48.762Z,73.73
2022-10-17T20:49:26.810Z,74.01
2022-10-17T20:51:54.803Z,73.90
2022-10-17T20:54:22.954Z,73.81
2022-10-17T20:56:50.925Z,74.81
2022-10-17T20:59:19.303Z,74.67
2022-10-17T21:01:48.352Z,74.44
2022-10-17T21:04:44.208Z,74.42
2022-10-17T21:07:05.237Z,74.50
2022-10-17T21:09:33.301Z,74.64
2022-10-17T21:14:36.436Z,74.47
2022-10-17T21:17:05.480Z,74.57
2022-10-17T21:19:34.089Z,75.03
2022-10-17T21:22:02.057Z,75.21
2022-10-17T21:24:30.949Z,75.04
2022-10-17T21:26:59.024Z,75.06
2022-10-17T21:29:27.198Z,74.94
2022-10-17T21:31:55.372Z,75.16
2022-10-17T21:34:27.811Z,75.24
2022-10-17T21:36:55.815Z,75.10
2022-10-17T21:39:25.035Z,74.90
2022-10-17T21:41:54.176Z,74.70
2022-10-17T21:44:25.785Z,74.84
2022-10-17T21:46:54.963Z,74.97
2022-10-17T21:49:24.807Z,75.09
2022-10-17T21:51:53.578Z,75.31
2022-10-17T21:54:23.540Z,75.34
2022-10-17T21:56:52.175Z,75.42
2022-10-17T21:59:20.249Z,75.28
2022-10-17T22:01:48.746Z,75.33
2022-10-17T22:04:18.919Z,75.94
2022-10-17T22:06:51.096Z,75.98
2022-10-17T22:09:23.183Z,75.59
2022-10-17T22:11:54.548Z,75.32
2022-10-17T22:14:25.753Z,75.47
2022-10-17T22:16:54.798Z,75.64
2022-10-17T22:19:25.881Z,75.60
2022-10-17T22:21:54.848Z,75.80
2022-10-17T22:24:23.637Z,75.30
2022-10-17T22:26:52.342Z,75.33
2022-10-17T22:29:21.159Z,75.77
2022-10-17T22:31:49.308Z,75.68
2022-10-17T22:34:18.469Z,75.86
2022-10-17T22:36:49.030Z,75.95
2022-10-17T22:39:17.173Z,76.34
2022-10-17T22:41:45.145Z,76.28
2022-10-17T22:44:13.023Z,76.28
2022-10-17T22:46:41.115Z,75.99
2022-10-17T22:49:09.008Z,76.32
2022-10-17T22:51:36.977Z,76.41
2022-10-17T22:54:05.299Z,76.16
2022-10-17T22:56:33.226Z,76.75
2022-10-17T22:59:01.292Z,77.03
2022-10-17T23:01:29.197Z,76.94
2022-10-17T23:03:57.177Z,77.19
2022-10-17T23:06:25.455Z,77.39
2022-10-17T23:08:53.731Z,77.40
2022-10-17T23:11:21.815Z,77.65
2022-10-17T23:13:49.976Z,77.95
2022-10-17T23:16:17.804Z,77.87
2022-10-17T23:18:45.815Z,77.71
2022-10-17T23:21:13.835Z,77.55
2022-10-17T23:23:42.170Z,77.41
2022-10-17T23:26:13.149Z,77.38
2022-10-17T23:28:42.704Z,77.07
2022-10-17T23:31:17.953Z,76.87
2022-10-17T23:33:47.652Z,77.13
2022-10-17T23:36:17.987Z,77.06
2022-10-17T23:38:47.188Z,77.01
2022-10-17T23:41:15.971Z,78.07
2022-10-17T23:43:44.559Z,77.95
2022-10-17T23:46:13.457Z,77.74
2022-10-17T23:48:41.825Z,77.30
2022-10-17T23:51:10.855Z,77.00
2022-10-17T23:53:39.961Z,76.83
2022-10-17T23:56:10.059Z,76.86
2022-10-17T23:58:39.084Z,76.63
